createdAt,value
2023-01-19T00:00:33.447Z,8.07
2023-01-19T00:03:00.560Z,8.43
2023-01-19T00:05:27.278Z,8.47
2023-01-19T00:07:54.012Z,9.00
2023-01-19T00:10:20.887Z,8.60
2023-01-19T00:12:47.611Z,9.67
2023-01-19T00:15:14.312Z,8.40
2023-01-19T00:17:41.156Z,9.63
2023-01-19T00:20:09.590Z,8.67
2023-01-19T00:22:36.301Z,9.27
2023-01-19T00:25:03.618Z,9.33
2023-01-19T00:27:34.877Z,9.53
2023-01-19T00:30:02.499Z,8.23
2023-01-19T00:32:29.292Z,9.30
2023-01-19T00:34:56.074Z,10.20
2023-01-19T00:37:23.223Z,9.50
2023-01-19T00:39:50.284Z,9.50
2023-01-19T00:42:35.999Z,9.17
2023-01-19T00:47:39.353Z,9.10
2023-01-19T00:50:08.384Z,9.10
2023-01-19T00:52:35.267Z,9.43
2023-01-19T00:55:02.326Z,8.50
2023-01-19T00:57:29.662Z,8.33
2023-01-19T00:59:57.081Z,8.57
2023-01-19T01:02:24.367Z,8.20
2023-01-19T01:04:54.866Z,9.13
2023-01-19T01:07:22.654Z,8.80
2023-01-19T01:09:49.399Z,8.90
2023-01-19T01:12:16.610Z,8.97
2023-01-19T01:14:43.384Z,8.23
2023-01-19T01:17:11.955Z,8.87
2023-01-19T01:19:39.050Z,7.83
2023-01-19T01:22:06.245Z,5.90
2023-01-19T01:24:33.108Z,7.30
2023-01-19T01:26:59.853Z,7.30
2023-01-19T01:29:26.749Z,6.90
2023-01-19T01:31:53.772Z,7.17
2023-01-19T01:34:20.606Z,6.67
2023-01-19T01:36:47.623Z,6.30
2023-01-19T01:39:14.343Z,6.83
2023-01-19T01:41:41.277Z,6.87
2023-01-19T01:44:49.856Z,7.50
2023-01-19T01:47:41.373Z,6.80
2023-01-19T01:50:15.068Z,6.67
2023-01-19T01:53:07.399Z,7.23
2023-01-19T01:55:46.249Z,7.63
2023-01-19T01:58:14.973Z,7.63
2023-01-19T02:01:00.310Z,6.93
2023-01-19T02:03:28.144Z,7.77
2023-01-19T02:06:00.119Z,7.97
2023-01-19T02:09:02.007Z,7.90
2023-01-19T02:11:49.664Z,7.43
2023-01-19T02:14:16.817Z,7.10
2023-01-19T02:16:43.747Z,6.73
2023-01-19T02:19:16.951Z,7.80
2023-01-19T02:22:05.862Z,7.23
2023-01-19T02:24:33.319Z,7.87
2023-01-19T02:27:00.374Z,7.20
2023-01-19T02:29:28.704Z,7.23
2023-01-19T02:31:56.812Z,7.50
2023-01-19T02:34:23.551Z,7.57
2023-01-19T02:36:54.988Z,7.97
2023-01-19T02:39:38.920Z,6.97
2023-01-19T02:42:13.533Z,6.53
2023-01-19T02:44:43.480Z,8.20
2023-01-19T02:47:10.238Z,7.10
2023-01-19T02:49:37.617Z,7.17
2023-01-19T02:52:04.961Z,7.10
2023-01-19T02:54:43.644Z,7.00
2023-01-19T02:57:26.828Z,6.83
2023-01-19T03:00:09.863Z,6.83
2023-01-19T03:02:55.895Z,6.83
2023-01-19T03:05:50.267Z,6.67
2023-01-19T03:08:30.006Z,5.97
2023-01-19T03:11:04.589Z,6.20
2023-01-19T03:13:44.319Z,6.17
2023-01-19T03:16:25.736Z,6.03
2023-01-19T03:18:56.685Z,5.70
2023-01-19T03:21:27.593Z,5.13
2023-01-19T03:24:00.201Z,4.50
2023-01-19T03:26:32.609Z,5.50
2023-01-19T03:29:02.559Z,5.40
2023-01-19T03:31:33.432Z,4.83
2023-01-19T03:34:06.789Z,5.10
2023-01-19T03:36:42.515Z,5.60
2023-01-19T03:39:11.338Z,5.33
2023-01-19T03:41:41.360Z,5.23
2023-01-19T03:44:09.187Z,4.63
2023-01-19T03:46:36.333Z,5.13
2023-01-19T03:49:03.695Z,5.37
2023-01-19T03:51:30.827Z,4.73
2023-01-19T03:53:57.684Z,4.83
2023-01-19T03:56:25.872Z,5.47
2023-01-19T03:58:52.810Z,5.23
2023-01-19T04:01:24.166Z,5.70
2023-01-19T04:03:52.458Z,5.27
2023-01-19T04:06:21.517Z,5.13
2023-01-19T04:08:50.453Z,5.07
2023-01-19T04:11:18.050Z,6.03
2023-01-19T04:13:45.031Z,4.90
2023-01-19T04:16:12.797Z,5.63
2023-01-19T04:18:40.734Z,5.80
2023-01-19T04:21:08.016Z,5.93
2023-01-19T04:23:35.643Z,5.93
2023-01-19T04:26:05.031Z,6.63
2023-01-19T04:28:33.445Z,5.30
2023-01-19T04:31:00.323Z,5.97
2023-01-19T04:33:28.030Z,5.27
2023-01-19T04:35:56.124Z,6.43
2023-01-19T04:38:23.932Z,5.97
2023-01-19T04:40:52.839Z,5.53
2023-01-19T04:43:21.108Z,6.13
2023-01-19T04:45:48.590Z,6.40
2023-01-19T04:48:16.484Z,5.50
2023-01-19T04:50:43.201Z,6.47
2023-01-19T04:53:10.831Z,5.87
2023-01-19T04:55:38.887Z,6.73
2023-01-19T04:58:05.931Z,7.27
2023-01-19T05:00:32.640Z,7.10
2023-01-19T05:03:00.139Z,7.10
2023-01-19T05:05:27.480Z,7.27
2023-01-19T05:07:54.980Z,6.50
2023-01-19T05:10:22.120Z,6.90
2023-01-19T05:12:48.870Z,6.70
2023-01-19T05:15:15.646Z,6.67
2023-01-19T05:17:42.372Z,7.40
2023-01-19T05:20:15.711Z,7.73
2023-01-19T05:22:43.474Z,7.37
2023-01-19T05:25:10.368Z,7.37
2023-01-19T05:27:38.710Z,7.30
2023-01-19T05:30:06.789Z,7.10
2023-01-19T05:32:33.692Z,8.10
2023-01-19T05:35:00.596Z,7.40
2023-01-19T05:37:27.435Z,7.50
2023-01-19T05:39:54.910Z,7.93
2023-01-19T05:42:21.850Z,8.90
2023-01-19T05:44:48.779Z,8.83
2023-01-19T05:47:15.696Z,8.33
2023-01-19T05:49:42.427Z,8.17
2023-01-19T05:52:09.173Z,9.00
2023-01-19T05:54:35.870Z,8.70
2023-01-19T05:57:03.176Z,8.80
2023-01-19T05:59:30.108Z,8.63
2023-01-19T06:01:57.311Z,9.13
2023-01-19T06:04:24.480Z,8.20
2023-01-19T06:06:51.584Z,8.40
2023-01-19T06:09:18.878Z,8.83
2023-01-19T06:11:46.766Z,8.90
2023-01-19T06:14:13.883Z,9.33
2023-01-19T06:16:41.289Z,8.80
2023-01-19T06:19:08.290Z,9.60
2023-01-19T06:21:35.446Z,9.70
2023-01-19T06:24:02.214Z,9.67
2023-01-19T06:26:29.341Z,9.70
2023-01-19T06:28:56.106Z,8.97
2023-01-19T06:31:23.074Z,9.00
2023-01-19T06:33:51.724Z,9.80
2023-01-19T06:36:18.478Z,9.60
2023-01-19T06:38:45.495Z,9.70
2023-01-19T06:41:12.216Z,10.53
2023-01-19T06:43:39.004Z,10.40
2023-01-19T06:46:06.092Z,10.63
2023-01-19T06:48:32.905Z,9.57
2023-01-19T06:51:00.011Z,10.33
2023-01-19T06:53:30.600Z,10.67
2023-01-19T06:56:02.078Z,9.43
2023-01-19T06:58:30.787Z,10.20
2023-01-19T07:01:08.073Z,10.10
2023-01-19T07:03:37.312Z,9.90
2023-01-19T07:06:06.738Z,10.23
2023-01-19T07:08:35.515Z,9.60
2023-01-19T07:11:26.404Z,10.00
2023-01-19T07:13:55.597Z,9.23
2023-01-19T07:16:23.416Z,9.93
2023-01-19T07:18:51.011Z,8.97
2023-01-19T07:21:18.201Z,9.90
2023-01-19T07:23:47.747Z,9.90
2023-01-19T07:26:15.621Z,10.80
2023-01-19T07:28:42.370Z,9.73
2023-01-19T07:31:09.723Z,10.03
2023-01-19T07:33:36.695Z,10.10
2023-01-19T07:36:03.510Z,10.10
2023-01-19T07:38:30.244Z,10.07
2023-01-19T07:41:02.225Z,9.40
2023-01-19T07:43:29.132Z,9.07
2023-01-19T07:45:57.931Z,8.90
2023-01-19T07:48:25.122Z,9.20
2023-01-19T07:50:51.863Z,9.23
2023-01-19T07:53:18.661Z,9.53
2023-01-19T07:55:46.048Z,10.30
2023-01-19T07:58:13.046Z,10.50
2023-01-19T08:00:39.871Z,9.57
2023-01-19T08:03:06.820Z,9.37
2023-01-19T08:05:33.895Z,9.57
2023-01-19T08:08:01.277Z,9.67
2023-01-19T08:10:29.151Z,9.53
2023-01-19T08:12:57.080Z,10.17
2023-01-19T08:15:24.928Z,9.57
2023-01-19T08:18:09.894Z,9.53
2023-01-19T08:20:37.635Z,9.83
2023-01-19T08:23:05.601Z,10.03
2023-01-19T08:25:33.616Z,9.90
2023-01-19T08:28:01.602Z,9.77
2023-01-19T08:30:28.706Z,9.90
2023-01-19T08:33:03.796Z,9.53
2023-01-19T08:35:32.414Z,9.03
2023-01-19T08:38:01.568Z,9.53
2023-01-19T08:40:29.913Z,9.03
2023-01-19T08:43:08.359Z,8.93
2023-01-19T08:45:37.202Z,9.33
2023-01-19T08:48:06.939Z,9.30
2023-01-19T08:50:34.614Z,9.40
2023-01-19T08:53:03.685Z,8.97
2023-01-19T08:55:33.698Z,9.57
2023-01-19T08:58:01.786Z,9.87
2023-01-19T09:00:31.652Z,9.50
2023-01-19T09:02:59.704Z,8.93
2023-01-19T09:05:27.393Z,8.80
2023-01-19T09:07:54.581Z,8.90
2023-01-19T09:10:21.316Z,9.13
2023-01-19T09:12:48.211Z,10.10
2023-01-19T09:15:15.040Z,9.93
2023-01-19T09:17:42.555Z,9.33
2023-01-19T09:20:10.337Z,9.60
2023-01-19T09:22:39.804Z,9.07
2023-01-19T09:25:07.595Z,10.00
2023-01-19T09:27:34.883Z,9.03
2023-01-19T09:30:03.247Z,8.83
2023-01-19T09:32:29.956Z,9.23
2023-01-19T09:34:56.945Z,9.80
2023-01-19T09:37:23.819Z,10.43
2023-01-19T09:39:50.598Z,9.73
2023-01-19T09:42:18.536Z,9.80
2023-01-19T09:44:48.198Z,9.53
2023-01-19T09:47:20.252Z,8.97
2023-01-19T09:50:11.503Z,9.73
2023-01-19T09:52:44.027Z,10.00
2023-01-19T09:55:22.831Z,8.43
2023-01-19T09:57:50.075Z,8.80
2023-01-19T10:00:18.553Z,8.43
2023-01-19T10:02:53.287Z,8.77
2023-01-19T10:05:29.568Z,7.53
2023-01-19T10:08:08.657Z,8.33
2023-01-19T10:10:37.727Z,8.07
2023-01-19T10:13:10.781Z,7.83
2023-01-19T10:15:48.186Z,8.60
2023-01-19T10:18:34.642Z,7.90
2023-01-19T10:21:05.694Z,7.40
2023-01-19T10:23:44.556Z,8.63
2023-01-19T10:26:14.479Z,8.20
2023-01-19T10:28:41.352Z,7.63
2023-01-19T10:31:09.787Z,8.03
2023-01-19T10:33:38.527Z,7.37
2023-01-19T10:36:39.924Z,7.03
2023-01-19T10:39:08.453Z,7.60
2023-01-19T10:42:00.496Z,6.83
2023-01-19T10:44:29.543Z,7.17
2023-01-19T10:46:59.814Z,7.50
2023-01-19T10:49:46.783Z,6.80
2023-01-19T10:52:35.736Z,6.97
2023-01-19T10:55:05.621Z,7.87
2023-01-19T10:57:37.421Z,6.83
2023-01-19T11:00:34.828Z,7.53
2023-01-19T11:03:02.397Z,7.47
2023-01-19T11:05:32.054Z,7.87
2023-01-19T11:07:59.628Z,7.90
2023-01-19T11:10:29.279Z,7.20
2023-01-19T11:13:12.710Z,7.43
2023-01-19T11:15:42.456Z,6.93
2023-01-19T11:18:20.731Z,7.77
2023-01-19T11:20:54.077Z,6.63
2023-01-19T11:23:34.716Z,7.60
2023-01-19T11:26:05.219Z,7.40
2023-01-19T11:28:33.738Z,6.93
2023-01-19T11:31:03.779Z,8.17
2023-01-19T11:33:37.723Z,8.07
2023-01-19T11:36:21.253Z,7.00
2023-01-19T11:38:56.864Z,7.43
2023-01-19T11:41:32.357Z,7.93
2023-01-19T11:44:16.335Z,7.17
2023-01-19T11:46:50.166Z,6.77
2023-01-19T11:49:27.448Z,6.70
2023-01-19T11:52:35.363Z,6.73
2023-01-19T11:55:05.915Z,7.03
2023-01-19T11:57:32.856Z,7.37
2023-01-19T12:00:05.228Z,6.87
2023-01-19T12:02:44.225Z,6.93
2023-01-19T12:05:15.968Z,7.57
2023-01-19T12:07:45.472Z,7.10
2023-01-19T12:10:31.486Z,6.57
2023-01-19T12:13:00.478Z,6.43
2023-01-19T12:15:39.339Z,6.20
2023-01-19T12:18:12.794Z,6.70
2023-01-19T12:20:54.303Z,6.20
2023-01-19T12:23:55.099Z,6.03
2023-01-19T12:26:35.215Z,5.13
2023-01-19T12:29:30.698Z,5.70
2023-01-19T12:32:19.065Z,6.00
2023-01-19T12:34:48.160Z,5.33
2023-01-19T12:37:34.241Z,5.77
2023-01-19T12:40:16.859Z,5.53
2023-01-19T12:43:05.622Z,5.43
2023-01-19T12:45:34.934Z,5.50
2023-01-19T12:48:04.035Z,5.67
2023-01-19T12:50:39.051Z,5.33
2023-01-19T12:53:19.302Z,5.33
2023-01-19T12:55:57.915Z,5.17
2023-01-19T12:58:25.773Z,4.77
2023-01-19T13:01:14.502Z,5.23
2023-01-19T13:03:45.878Z,4.87
2023-01-19T13:06:12.941Z,5.10
2023-01-19T13:08:58.044Z,4.90
2023-01-19T13:11:27.886Z,5.07
2023-01-19T13:13:59.326Z,5.07
2023-01-19T13:16:27.432Z,4.50
2023-01-19T13:18:56.154Z,4.87
2023-01-19T13:21:42.934Z,5.20
2023-01-19T13:24:25.965Z,4.70
2023-01-19T13:26:57.531Z,5.23
2023-01-19T13:29:33.931Z,4.70
2023-01-19T13:32:04.227Z,4.90
2023-01-19T13:34:40.378Z,4.63
2023-01-19T13:37:16.398Z,4.80
2023-01-19T13:39:45.214Z,2.97
2023-01-19T13:42:21.121Z,3.40
2023-01-19T13:44:53.914Z,2.60
2023-01-19T13:47:42.045Z,2.53
2023-01-19T13:50:22.546Z,3.10
2023-01-19T13:52:51.417Z,3.00
2023-01-19T13:55:19.230Z,3.30
2023-01-19T13:57:47.623Z,2.83
2023-01-19T14:00:22.615Z,2.30
2023-01-19T14:03:01.023Z,2.70
2023-01-19T14:05:34.376Z,3.07
2023-01-19T14:08:02.369Z,3.00
2023-01-19T14:10:31.542Z,2.70
2023-01-19T14:13:03.748Z,2.70
2023-01-19T14:15:34.105Z,2.13
2023-01-19T14:18:16.847Z,2.50
2023-01-19T14:21:14.578Z,2.17
2023-01-19T14:24:05.811Z,2.37
2023-01-19T14:26:38.582Z,2.20
2023-01-19T14:29:28.949Z,2.43
2023-01-19T14:32:20.787Z,2.73
2023-01-19T14:35:14.560Z,1.87
2023-01-19T14:37:50.655Z,1.90
2023-01-19T14:40:20.491Z,1.80
2023-01-19T14:43:06.263Z,2.60
2023-01-19T14:45:41.504Z,2.37
2023-01-19T14:48:22.109Z,2.00
2023-01-19T14:51:17.137Z,2.50
2023-01-19T14:53:50.788Z,2.63
2023-01-19T14:56:30.046Z,2.67
2023-01-19T14:58:58.388Z,2.40
2023-01-19T15:01:31.291Z,2.80
2023-01-19T15:03:58.747Z,2.20
2023-01-19T15:06:27.144Z,2.30
2023-01-19T15:08:55.042Z,2.37
2023-01-19T15:11:32.662Z,2.00
2023-01-19T15:14:00.471Z,9.67
2023-01-19T15:16:30.515Z,6.27
2023-01-19T15:18:57.883Z,4.80
2023-01-19T15:21:26.696Z,2.73
2023-01-19T15:23:55.918Z,2.73
2023-01-19T15:26:25.441Z,2.77
2023-01-19T15:28:52.813Z,2.70
2023-01-19T15:31:24.185Z,2.70
2023-01-19T15:33:51.698Z,2.77
2023-01-19T15:36:21.539Z,2.87
2023-01-19T15:38:51.610Z,2.70
2023-01-19T15:41:31.905Z,2.60
2023-01-19T15:43:59.211Z,3.10
2023-01-19T15:46:26.971Z,3.20
2023-01-19T15:48:54.254Z,2.60
2023-01-19T15:51:25.438Z,2.93
2023-01-19T15:53:53.075Z,2.63
2023-01-19T15:56:23.522Z,2.63
2023-01-19T15:58:51.534Z,2.27
2023-01-19T16:01:21.832Z,2.73
2023-01-19T16:03:49.335Z,2.30
2023-01-19T16:06:16.903Z,2.47
2023-01-19T16:08:44.816Z,2.03
2023-01-19T16:11:15.129Z,2.40
2023-01-19T16:13:46.166Z,2.40
2023-01-19T16:16:18.418Z,2.30
2023-01-19T16:18:46.067Z,2.63
2023-01-19T16:21:12.832Z,2.63
2023-01-19T16:23:39.978Z,3.37
2023-01-19T16:26:22.575Z,2.20
2023-01-19T16:28:49.458Z,2.97
2023-01-19T16:31:16.728Z,2.90
2023-01-19T16:33:45.363Z,3.43
2023-01-19T16:36:29.867Z,3.10
2023-01-19T16:39:02.849Z,3.27
2023-01-19T16:41:30.056Z,3.20
2023-01-19T16:43:58.157Z,2.93
2023-01-19T16:46:30.026Z,2.50
2023-01-19T16:49:02.649Z,3.40
2023-01-19T16:51:29.969Z,3.50
2023-01-19T16:53:57.313Z,3.17
2023-01-19T16:56:24.390Z,3.43
2023-01-19T16:58:59.126Z,3.43
2023-01-19T17:01:28.339Z,3.43
2023-01-19T17:03:56.368Z,3.57
2023-01-19T17:06:24.483Z,3.30
2023-01-19T17:08:52.765Z,4.03
2023-01-19T17:11:22.894Z,8.57
2023-01-19T17:13:57.465Z,8.77
2023-01-19T17:16:25.213Z,7.57
2023-01-19T17:18:52.623Z,6.00
2023-01-19T17:21:20.313Z,4.50
2023-01-19T17:23:49.013Z,4.13
2023-01-19T17:26:16.847Z,7.17
2023-01-19T17:28:44.197Z,5.00
2023-01-19T17:31:22.492Z,3.83
2023-01-19T17:33:51.198Z,10.70
2023-01-19T17:36:22.601Z,4.63
2023-01-19T17:38:50.486Z,5.27
2023-01-19T17:41:24.076Z,3.40
2023-01-19T17:43:52.742Z,3.10
2023-01-19T17:46:22.080Z,3.03
2023-01-19T17:48:57.767Z,3.57
2023-01-19T17:51:25.404Z,3.07
2023-01-19T17:53:53.210Z,3.50
2023-01-19T17:56:22.816Z,3.63
2023-01-19T17:58:50.224Z,3.53
2023-01-19T18:01:19.551Z,3.83
2023-01-19T18:03:47.012Z,3.90
2023-01-19T18:06:14.828Z,4.90
2023-01-19T18:08:44.575Z,4.27
2023-01-19T18:11:12.038Z,4.03
2023-01-19T18:13:42.070Z,3.70
2023-01-19T18:16:15.120Z,3.50
2023-01-19T18:18:42.111Z,3.67
2023-01-19T18:21:11.947Z,3.63
2023-01-19T18:23:38.983Z,3.43
2023-01-19T18:26:08.632Z,3.43
2023-01-19T18:28:35.687Z,3.37
2023-01-19T18:31:06.797Z,4.87
2023-01-19T18:33:34.230Z,5.23
2023-01-19T18:36:01.424Z,5.10
2023-01-19T18:38:28.920Z,5.77
2023-01-19T18:41:02.695Z,5.80
2023-01-19T18:43:31.086Z,5.70
2023-01-19T18:45:58.667Z,5.60
2023-01-19T18:48:25.978Z,6.00
2023-01-19T18:50:53.850Z,6.13
2023-01-19T18:53:21.617Z,6.00
2023-01-19T18:55:59.797Z,6.47
2023-01-19T18:58:29.986Z,5.93
2023-01-19T19:00:57.501Z,6.33
2023-01-19T19:03:24.850Z,6.83
2023-01-19T19:05:51.730Z,6.53
2023-01-19T19:08:19.031Z,6.60
2023-01-19T19:10:46.510Z,6.50
2023-01-19T19:13:14.436Z,6.53
2023-01-19T19:15:41.204Z,6.50
2023-01-19T19:18:14.064Z,6.37
2023-01-19T19:20:43.781Z,6.67
2023-01-19T19:23:11.726Z,6.13
2023-01-19T19:25:39.138Z,6.93
2023-01-19T19:28:06.155Z,6.10
2023-01-19T19:30:34.764Z,6.00
2023-01-19T19:33:02.094Z,5.77
2023-01-19T19:35:29.287Z,5.93
2023-01-19T19:37:57.997Z,6.10
2023-01-19T19:40:26.646Z,6.40
2023-01-19T19:42:53.906Z,6.33
2023-01-19T19:45:20.704Z,6.40
2023-01-19T19:47:47.435Z,6.43
2023-01-19T19:50:14.579Z,6.47
2023-01-19T19:52:42.307Z,6.30
2023-01-19T19:55:11.152Z,6.10
2023-01-19T19:57:38.623Z,5.73
2023-01-19T20:00:06.626Z,6.37
2023-01-19T20:02:36.699Z,7.17
2023-01-19T20:05:04.657Z,7.13
2023-01-19T20:07:31.799Z,6.67
2023-01-19T20:09:59.299Z,6.60
2023-01-19T20:12:26.177Z,6.07
2023-01-19T20:14:53.170Z,6.80
2023-01-19T20:17:20.985Z,6.70
2023-01-19T20:19:49.034Z,6.40
2023-01-19T20:22:16.140Z,6.20
2023-01-19T20:24:43.454Z,6.40
2023-01-19T20:27:10.669Z,6.87
2023-01-19T20:29:38.188Z,7.47
2023-01-19T20:32:05.026Z,7.37
2023-01-19T20:34:33.720Z,6.27
2023-01-19T20:37:02.142Z,6.93
2023-01-19T20:39:30.294Z,6.83
2023-01-19T20:41:57.167Z,7.10
2023-01-19T20:44:25.465Z,7.17
2023-01-19T20:46:53.377Z,7.53
2023-01-19T20:49:20.571Z,7.30
2023-01-19T20:51:47.802Z,9.10
2023-01-19T20:54:18.400Z,10.50
2023-01-19T20:56:45.131Z,8.70
2023-01-19T20:59:12.672Z,7.67
2023-01-19T21:01:41.091Z,7.53
2023-01-19T21:04:08.510Z,8.00
2023-01-19T21:06:35.722Z,6.87
2023-01-19T21:09:02.693Z,6.67
2023-01-19T21:11:29.931Z,7.17
2023-01-19T21:13:56.788Z,6.60
2023-01-19T21:16:26.198Z,7.70
2023-01-19T21:18:53.678Z,7.80
2023-01-19T21:21:30.518Z,7.17
2023-01-19T21:24:00.574Z,8.20
2023-01-19T21:26:30.113Z,6.57
2023-01-19T21:29:01.950Z,6.30
2023-01-19T21:31:29.254Z,6.40
2023-01-19T21:34:00.139Z,6.97
2023-01-19T21:36:27.145Z,7.00
2023-01-19T21:39:00.790Z,6.30
2023-01-19T21:41:29.093Z,6.57
2023-01-19T21:43:55.875Z,7.20
2023-01-19T21:46:29.703Z,6.57
2023-01-19T21:49:01.452Z,7.37
2023-01-19T21:51:33.474Z,6.60
2023-01-19T21:54:02.156Z,6.43
2023-01-19T21:56:30.421Z,6.07
2023-01-19T21:58:59.448Z,5.20
2023-01-19T22:01:26.274Z,4.77
2023-01-19T22:03:55.263Z,5.30
2023-01-19T22:06:23.248Z,5.23
2023-01-19T22:08:50.199Z,5.97
2023-01-19T22:11:19.815Z,5.83
2023-01-19T22:13:46.660Z,5.93
2023-01-19T22:16:15.669Z,6.30
2023-01-19T22:18:45.423Z,6.90
2023-01-19T22:21:15.682Z,7.30
2023-01-19T22:23:43.883Z,6.70
2023-01-19T22:26:11.814Z,6.60
2023-01-19T22:28:38.604Z,6.80
2023-01-19T22:31:11.676Z,7.30
2023-01-19T22:33:38.898Z,7.50
2023-01-19T22:36:31.232Z,7.03
2023-01-19T22:39:03.889Z,7.67
2023-01-19T22:41:36.190Z,7.30
2023-01-19T22:44:05.276Z,7.80
2023-01-19T22:46:34.088Z,7.50
2023-01-19T22:49:01.576Z,7.50
2023-01-19T22:51:29.877Z,8.00
2023-01-19T22:53:57.038Z,7.93
2023-01-19T22:56:25.973Z,7.40
2023-01-19T22:58:53.513Z,7.97
2023-01-19T23:01:26.794Z,8.20
2023-01-19T23:03:54.385Z,7.50
2023-01-19T23:06:26.529Z,7.63
2023-01-19T23:08:56.088Z,9.40
2023-01-19T23:11:25.819Z,8.47
2023-01-19T23:13:53.188Z,8.43
2023-01-19T23:16:20.228Z,7.67
2023-01-19T23:18:47.387Z,8.03
2023-01-19T23:21:20.265Z,8.37
2023-01-19T23:23:47.809Z,8.23
2023-01-19T23:26:17.691Z,7.63
2023-01-19T23:28:46.229Z,8.67
2023-01-19T23:31:22.269Z,7.40
2023-01-19T23:33:55.461Z,8.37
2023-01-19T23:36:24.160Z,7.80
2023-01-19T23:38:56.425Z,7.80
2023-01-19T23:41:24.496Z,7.67
2023-01-19T23:43:52.052Z,7.33
2023-01-19T23:46:19.607Z,7.40
2023-01-19T23:48:46.822Z,7.73
2023-01-19T23:51:16.534Z,8.10
2023-01-19T23:53:43.687Z,7.73
2023-01-19T23:56:19.635Z,7.83
2023-01-19T23:58:48.381Z,8.80
